sensor_id;sensor_type;location;lat;lon;timestamp;temperature;humidity
18105;DHT22;9179;50.968;3.134;2023-05-19T00:02:17;9.90;99.90
18105;DHT22;9179;50.968;3.134;2023-05-19T00:04:45;9.90;99.90
18105;DHT22;9179;50.968;3.134;2023-05-19T00:07:17;9.80;99.90
18105;DHT22;9179;50.968;3.134;2023-05-19T00:09:45;9.80;99.90
18105;DHT22;9179;50.968;3.134;2023-05-19T00:12:13;9.70;99.90
18105;DHT22;9179;50.968;3.134;2023-05-19T00:14:42;9.70;99.90
18105;DHT22;9179;50.968;3.134;2023-05-19T00:17:09;9.70;99.90
18105;DHT22;9179;50.968;3.134;2023-05-19T00:19:36;9.70;99.90
18105;DHT22;9179;50.968;3.134;2023-05-19T00:22:04;9.70;99.90
18105;DHT22;9179;50.968;3.134;2023-05-19T00:24:31;9.70;99.90
18105;DHT22;9179;50.968;3.134;2023-05-19T00:26:58;9.70;99.90
18105;DHT22;9179;50.968;3.134;2023-05-19T00:29:25;9.70;99.90
18105;DHT22;9179;50.968;3.134;2023-05-19T00:31:53;9.80;99.90
18105;DHT22;9179;50.968;3.134;2023-05-19T00:34:20;9.80;99.90
18105;DHT22;9179;50.968;3.134;2023-05-19T00:36:47;9.70;99.90
18105;DHT22;9179;50.968;3.134;2023-05-19T00:39:15;9.70;99.90
18105;DHT22;9179;50.968;3.134;2023-05-19T00:41:42;9.70;99.90
18105;DHT22;9179;50.968;3.134;2023-05-19T00:44:09;9.60;99.90
18105;DHT22;9179;50.968;3.134;2023-05-19T00:46:36;9.50;99.90
18105;DHT22;9179;50.968;3.134;2023-05-19T00:49:04;9.50;99.90
18105;DHT22;9179;50.968;3.134;2023-05-19T00:51:31;9.50;99.90
18105;DHT22;9179;50.968;3.134;2023-05-19T00:53:58;9.40;99.90
18105;DHT22;9179;50.968;3.134;2023-05-19T00:56:26;9.40;99.90
18105;DHT22;9179;50.968;3.134;2023-05-19T00:58:54;9.40;99.90
18105;DHT22;9179;50.968;3.134;2023-05-19T01:01:21;9.30;99.90
18105;DHT22;9179;50.968;3.134;2023-05-19T01:03:48;9.30;99.90
18105;DHT22;9179;50.968;3.134;2023-05-19T01:06:17;9.30;99.90
18105;DHT22;9179;50.968;3.134;2023-05-19T01:08:45;9.20;99.90
18105;DHT22;9179;50.968;3.134;2023-05-19T01:11:12;9.20;99.90
18105;DHT22;9179;50.968;3.134;2023-05-19T01:13:39;9.20;99.90
18105;DHT22;9179;50.968;3.134;2023-05-19T01:16:10;9.20;99.90
18105;DHT22;9179;50.968;3.134;2023-05-19T01:18:44;9.20;99.90
18105;DHT22;9179;50.968;3.134;2023-05-19T01:21:39;9.30;99.90
18105;DHT22;9179;50.968;3.134;2023-05-19T01:27:28;9.40;99.90
18105;DHT22;9179;50.968;3.134;2023-05-19T01:30:23;9.40;99.90
18105;DHT22;9179;50.968;3.134;2023-05-19T01:32:53;9.40;99.90
18105;DHT22;9179;50.968;3.134;2023-05-19T01:35:22;9.30;99.90
18105;DHT22;9179;50.968;3.134;2023-05-19T01:37:51;9.40;99.90
18105;DHT22;9179;50.968;3.134;2023-05-19T01:40:20;9.40;99.90
18105;DHT22;9179;50.968;3.134;2023-05-19T01:42:48;9.30;99.90
18105;DHT22;9179;50.968;3.134;2023-05-19T01:45:18;9.40;99.90
18105;DHT22;9179;50.968;3.134;2023-05-19T01:47:49;9.30;99.90
18105;DHT22;9179;50.968;3.134;2023-05-19T01:50:16;9.30;99.90
18105;DHT22;9179;50.968;3.134;2023-05-19T01:52:43;9.40;99.90
18105;DHT22;9179;50.968;3.134;2023-05-19T01:55:10;9.40;99.90
18105;DHT22;9179;50.968;3.134;2023-05-19T01:57:50;9.40;99.90
18105;DHT22;9179;50.968;3.134;2023-05-19T02:00:30;9.40;99.90
18105;DHT22;9179;50.968;3.134;2023-05-19T02:03:11;9.40;99.90
18105;DHT22;9179;50.968;3.134;2023-05-19T02:05:48;9.40;99.90
18105;DHT22;9179;50.968;3.134;2023-05-19T02:08:24;9.30;99.90
18105;DHT22;9179;50.968;3.134;2023-05-19T02:11:01;9.40;99.90
18105;DHT22;9179;50.968;3.134;2023-05-19T02:13:32;9.40;99.90
18105;DHT22;9179;50.968;3.134;2023-05-19T02:16:04;9.40;99.90
18105;DHT22;9179;50.968;3.134;2023-05-19T02:18:31;9.40;99.90
18105;DHT22;9179;50.968;3.134;2023-05-19T02:21:00;9.50;99.90
18105;DHT22;9179;50.968;3.134;2023-05-19T02:23:26;9.40;99.90
18105;DHT22;9179;50.968;3.134;2023-05-19T02:25:53;9.40;99.90
18105;DHT22;9179;50.968;3.134;2023-05-19T02:28:20;9.40;99.90
18105;DHT22;9179;50.968;3.134;2023-05-19T02:30:47;9.50;99.90
18105;DHT22;9179;50.968;3.134;2023-05-19T02:33:16;9.40;99.90
18105;DHT22;9179;50.968;3.134;2023-05-19T02:35:43;9.40;99.90
18105;DHT22;9179;50.968;3.134;2023-05-19T02:38:10;9.30;99.90
18105;DHT22;9179;50.968;3.134;2023-05-19T02:40:37;9.30;99.90
18105;DHT22;9179;50.968;3.134;2023-05-19T02:43:04;9.40;99.90
18105;DHT22;9179;50.968;3.134;2023-05-19T02:45:32;9.40;99.90
18105;DHT22;9179;50.968;3.134;2023-05-19T02:47:59;9.30;99.90
18105;DHT22;9179;50.968;3.134;2023-05-19T02:50:27;9.40;99.90
18105;DHT22;9179;50.968;3.134;2023-05-19T02:52:54;9.30;99.90
18105;DHT22;9179;50.968;3.134;2023-05-19T02:55:21;9.30;99.90
18105;DHT22;9179;50.968;3.134;2023-05-19T02:57:48;9.30;99.90
18105;DHT22;9179;50.968;3.134;2023-05-19T03:00:15;9.30;99.90
18105;DHT22;9179;50.968;3.134;2023-05-19T03:02:42;9.30;99.90
18105;DHT22;9179;50.968;3.134;2023-05-19T03:05:09;9.30;99.90
18105;DHT22;9179;50.968;3.134;2023-05-19T03:07:37;9.30;99.90
18105;DHT22;9179;50.968;3.134;2023-05-19T03:10:05;9.30;99.90
18105;DHT22;9179;50.968;3.134;2023-05-19T03:12:33;9.30;99.90
18105;DHT22;9179;50.968;3.134;2023-05-19T03:15:00;9.30;99.90
18105;DHT22;9179;50.968;3.134;2023-05-19T03:17:27;9.30;99.90
18105;DHT22;9179;50.968;3.134;2023-05-19T03:19:58;9.30;99.90
18105;DHT22;9179;50.968;3.134;2023-05-19T03:22:26;9.20;99.90
18105;DHT22;9179;50.968;3.134;2023-05-19T03:24:54;9.10;99.90
18105;DHT22;9179;50.968;3.134;2023-05-19T03:27:23;9.10;99.90
18105;DHT22;9179;50.968;3.134;2023-05-19T03:29:50;9.10;99.90
18105;DHT22;9179;50.968;3.134;2023-05-19T03:32:18;9.00;99.90
18105;DHT22;9179;50.968;3.134;2023-05-19T03:34:45;9.00;99.90
18105;DHT22;9179;50.968;3.134;2023-05-19T03:37:12;9.00;99.90
18105;DHT22;9179;50.968;3.134;2023-05-19T03:39:39;9.10;99.90
18105;DHT22;9179;50.968;3.134;2023-05-19T03:42:08;9.00;99.90
18105;DHT22;9179;50.968;3.134;2023-05-19T03:44:35;9.00;99.90
18105;DHT22;9179;50.968;3.134;2023-05-19T03:47:01;9.00;99.90
18105;DHT22;9179;50.968;3.134;2023-05-19T03:49:28;9.10;99.90
18105;DHT22;9179;50.968;3.134;2023-05-19T03:51:55;9.00;99.90
18105;DHT22;9179;50.968;3.134;2023-05-19T03:54:22;9.10;99.90
18105;DHT22;9179;50.968;3.134;2023-05-19T03:56:49;9.10;99.90
18105;DHT22;9179;50.968;3.134;2023-05-19T03:59:18;9.20;99.90
18105;DHT22;9179;50.968;3.134;2023-05-19T04:01:44;9.20;99.90
18105;DHT22;9179;50.968;3.134;2023-05-19T04:04:12;9.20;99.90
18105;DHT22;9179;50.968;3.134;2023-05-19T04:06:39;9.30;99.90
18105;DHT22;9179;50.968;3.134;2023-05-19T04:09:10;9.30;99.90
18105;DHT22;9179;50.968;3.134;2023-05-19T04:11:39;9.50;99.90
18105;DHT22;9179;50.968;3.134;2023-05-19T04:14:06;9.40;99.90
18105;DHT22;9179;50.968;3.134;2023-05-19T04:16:35;9.50;99.90
18105;DHT22;9179;50.968;3.134;2023-05-19T04:19:02;9.50;99.90
18105;DHT22;9179;50.968;3.134;2023-05-19T04:21:28;9.60;99.90
18105;DHT22;9179;50.968;3.134;2023-05-19T04:23:55;9.60;99.90
18105;DHT22;9179;50.968;3.134;2023-05-19T04:26:24;9.60;99.90
18105;DHT22;9179;50.968;3.134;2023-05-19T04:28:51;9.70;99.90
18105;DHT22;9179;50.968;3.134;2023-05-19T04:31:18;9.80;99.90
18105;DHT22;9179;50.968;3.134;2023-05-19T04:33:47;9.90;99.90
18105;DHT22;9179;50.968;3.134;2023-05-19T04:36:14;10.10;99.90
18105;DHT22;9179;50.968;3.134;2023-05-19T04:38:46;10.30;99.90
18105;DHT22;9179;50.968;3.134;2023-05-19T04:41:13;10.60;99.90
18105;DHT22;9179;50.968;3.134;2023-05-19T04:43:41;10.80;99.90
18105;DHT22;9179;50.968;3.134;2023-05-19T04:46:09;11.00;99.90
18105;DHT22;9179;50.968;3.134;2023-05-19T04:48:37;11.30;99.90
18105;DHT22;9179;50.968;3.134;2023-05-19T04:51:05;11.50;99.90
18105;DHT22;9179;50.968;3.134;2023-05-19T04:53:33;11.80;99.90
18105;DHT22;9179;50.968;3.134;2023-05-19T04:56:01;12.10;99.90
18105;DHT22;9179;50.968;3.134;2023-05-19T04:58:28;12.40;99.90
18105;DHT22;9179;50.968;3.134;2023-05-19T05:00:55;12.70;99.90
18105;DHT22;9179;50.968;3.134;2023-05-19T05:03:23;12.90;99.90
18105;DHT22;9179;50.968;3.134;2023-05-19T05:05:50;13.00;99.90
18105;DHT22;9179;50.968;3.134;2023-05-19T05:08:22;13.20;99.90
18105;DHT22;9179;50.968;3.134;2023-05-19T05:10:49;13.40;99.90
18105;DHT22;9179;50.968;3.134;2023-05-19T05:13:17;13.70;99.90
18105;DHT22;9179;50.968;3.134;2023-05-19T05:15:45;13.90;99.90
18105;DHT22;9179;50.968;3.134;2023-05-19T05:18:13;14.10;99.90
18105;DHT22;9179;50.968;3.134;2023-05-19T05:20:41;14.50;99.90
18105;DHT22;9179;50.968;3.134;2023-05-19T05:23:08;14.80;99.90
18105;DHT22;9179;50.968;3.134;2023-05-19T05:25:41;15.20;99.90
18105;DHT22;9179;50.968;3.134;2023-05-19T05:28:08;15.30;99.90
18105;DHT22;9179;50.968;3.134;2023-05-19T05:30:36;15.60;99.90
18105;DHT22;9179;50.968;3.134;2023-05-19T05:33:03;15.70;99.90
18105;DHT22;9179;50.968;3.134;2023-05-19T05:35:30;15.80;99.90
18105;DHT22;9179;50.968;3.134;2023-05-19T05:37:57;15.90;99.90
18105;DHT22;9179;50.968;3.134;2023-05-19T05:40:24;16.30;99.90
18105;DHT22;9179;50.968;3.134;2023-05-19T05:42:53;16.30;99.90
18105;DHT22;9179;50.968;3.134;2023-05-19T05:45:20;16.40;99.90
18105;DHT22;9179;50.968;3.134;2023-05-19T05:47:48;16.50;99.90
18105;DHT22;9179;50.968;3.134;2023-05-19T05:50:16;16.80;99.90
18105;DHT22;9179;50.968;3.134;2023-05-19T05:52:45;16.90;99.90
18105;DHT22;9179;50.968;3.134;2023-05-19T05:55:15;17.10;99.90
18105;DHT22;9179;50.968;3.134;2023-05-19T05:57:43;17.30;99.90
18105;DHT22;9179;50.968;3.134;2023-05-19T06:00:12;17.20;99.90
18105;DHT22;9179;50.968;3.134;2023-05-19T06:02:41;17.20;99.90
18105;DHT22;9179;50.968;3.134;2023-05-19T06:05:09;17.50;99.90
18105;DHT22;9179;50.968;3.134;2023-05-19T06:07:37;17.70;99.90
18105;DHT22;9179;50.968;3.134;2023-05-19T06:10:05;17.80;99.90
18105;DHT22;9179;50.968;3.134;2023-05-19T06:12:33;18.40;99.90
18105;DHT22;9179;50.968;3.134;2023-05-19T06:15:01;18.20;99.90
18105;DHT22;9179;50.968;3.134;2023-05-19T06:17:30;18.10;99.90
18105;DHT22;9179;50.968;3.134;2023-05-19T06:19:59;18.30;99.90
18105;DHT22;9179;50.968;3.134;2023-05-19T06:22:26;18.40;99.90
18105;DHT22;9179;50.968;3.134;2023-05-19T06:24:53;18.50;99.90
18105;DHT22;9179;50.968;3.134;2023-05-19T06:32:32;18.90;99.90
18105;DHT22;9179;50.968;3.134;2023-05-19T06:34:59;19.50;99.90
18105;DHT22;9179;50.968;3.134;2023-05-19T06:37:26;19.60;99.90
18105;DHT22;9179;50.968;3.134;2023-05-19T06:39:52;19.60;99.90
18105;DHT22;9179;50.968;3.134;2023-05-19T06:42:20;19.30;99.90
18105;DHT22;9179;50.968;3.134;2023-05-19T06:44:49;19.30;99.90
18105;DHT22;9179;50.968;3.134;2023-05-19T06:47:19;19.30;99.90
18105;DHT22;9179;50.968;3.134;2023-05-19T06:49:54;19.60;99.90
18105;DHT22;9179;50.968;3.134;2023-05-19T06:52:21;20.20;99.90
18105;DHT22;9179;50.968;3.134;2023-05-19T06:54:49;20.60;99.90
18105;DHT22;9179;50.968;3.134;2023-05-19T06:57:28;20.80;99.90
18105;DHT22;9179;50.968;3.134;2023-05-19T06:59:56;20.90;99.90
18105;DHT22;9179;50.968;3.134;2023-05-19T07:02:23;21.10;99.90
18105;DHT22;9179;50.968;3.134;2023-05-19T07:04:50;21.30;99.90
18105;DHT22;9179;50.968;3.134;2023-05-19T07:07:19;21.70;99.90
18105;DHT22;9179;50.968;3.134;2023-05-19T07:09:49;21.70;99.90
18105;DHT22;9179;50.968;3.134;2023-05-19T07:12:19;22.10;99.90
18105;DHT22;9179;50.968;3.134;2023-05-19T07:14:48;22.30;99.90
18105;DHT22;9179;50.968;3.134;2023-05-19T07:17:15;22.20;99.90
18105;DHT22;9179;50.968;3.134;2023-05-19T07:19:42;22.50;99.90
18105;DHT22;9179;50.968;3.134;2023-05-19T07:22:12;22.60;99.90
18105;DHT22;9179;50.968;3.134;2023-05-19T07:24:43;22.70;99.90
18105;DHT22;9179;50.968;3.134;2023-05-19T07:27:17;23.10;99.90
18105;DHT22;9179;50.968;3.134;2023-05-19T07:29:50;22.90;99.90
18105;DHT22;9179;50.968;3.134;2023-05-19T07:32:38;22.70;99.10
18105;DHT22;9179;50.968;3.134;2023-05-19T07:35:17;22.40;99.20
18105;DHT22;9179;50.968;3.134;2023-05-19T07:37:44;22.70;98.40
18105;DHT22;9179;50.968;3.134;2023-05-19T07:40:34;22.70;98.10
18105;DHT22;9179;50.968;3.134;2023-05-19T07:43:15;23.10;97.40
18105;DHT22;9179;50.968;3.134;2023-05-19T07:45:58;23.40;97.00
18105;DHT22;9179;50.968;3.134;2023-05-19T07:48:35;23.40;95.70
18105;DHT22;9179;50.968;3.134;2023-05-19T07:51:11;23.40;95.30
18105;DHT22;9179;50.968;3.134;2023-05-19T07:53:50;23.80;95.60
18105;DHT22;9179;50.968;3.134;2023-05-19T07:56:18;24.20;93.80
18105;DHT22;9179;50.968;3.134;2023-05-19T07:59:01;24.40;93.80
18105;DHT22;9179;50.968;3.134;2023-05-19T08:01:39;24.70;92.90
18105;DHT22;9179;50.968;3.134;2023-05-19T08:04:09;24.70;92.40
18105;DHT22;9179;50.968;3.134;2023-05-19T08:06:37;24.60;92.00
18105;DHT22;9179;50.968;3.134;2023-05-19T08:09:04;24.60;91.40
18105;DHT22;9179;50.968;3.134;2023-05-19T08:11:32;24.70;91.20
18105;DHT22;9179;50.968;3.134;2023-05-19T08:13:59;24.70;90.30
18105;DHT22;9179;50.968;3.134;2023-05-19T08:16:26;24.30;90.60
18105;DHT22;9179;50.968;3.134;2023-05-19T08:18:53;24.70;90.40
18105;DHT22;9179;50.968;3.134;2023-05-19T08:21:20;25.10;90.10
18105;DHT22;9179;50.968;3.134;2023-05-19T08:23:47;25.00;89.90
18105;DHT22;9179;50.968;3.134;2023-05-19T08:26:14;25.70;89.40
18105;DHT22;9179;50.968;3.134;2023-05-19T08:28:54;26.10;86.10
18105;DHT22;9179;50.968;3.134;2023-05-19T08:31:28;25.80;83.00
18105;DHT22;9179;50.968;3.134;2023-05-19T08:33:57;25.30;84.00
18105;DHT22;9179;50.968;3.134;2023-05-19T08:36:29;25.10;84.60
18105;DHT22;9179;50.968;3.134;2023-05-19T08:38:59;25.30;84.60
18105;DHT22;9179;50.968;3.134;2023-05-19T08:41:27;25.20;83.30
18105;DHT22;9179;50.968;3.134;2023-05-19T08:43:59;25.20;83.00
18105;DHT22;9179;50.968;3.134;2023-05-19T08:46:28;25.60;81.80
18105;DHT22;9179;50.968;3.134;2023-05-19T08:49:00;25.50;79.70
18105;DHT22;9179;50.968;3.134;2023-05-19T08:51:43;25.00;79.50
18105;DHT22;9179;50.968;3.134;2023-05-19T08:54:36;25.10;79.60
18105;DHT22;9179;50.968;3.134;2023-05-19T08:57:22;25.20;79.70
18105;DHT22;9179;50.968;3.134;2023-05-19T09:00:06;25.00;78.00
18105;DHT22;9179;50.968;3.134;2023-05-19T09:02:37;25.00;78.50
18105;DHT22;9179;50.968;3.134;2023-05-19T09:05:09;25.10;77.40
18105;DHT22;9179;50.968;3.134;2023-05-19T09:07:40;25.10;77.30
18105;DHT22;9179;50.968;3.134;2023-05-19T09:10:14;25.70;76.90
18105;DHT22;9179;50.968;3.134;2023-05-19T09:12:46;25.30;75.50
18105;DHT22;9179;50.968;3.134;2023-05-19T09:23:07;25.70;73.10
18105;DHT22;9179;50.968;3.134;2023-05-19T09:25:47;25.70;72.60
18105;DHT22;9179;50.968;3.134;2023-05-19T09:28:45;25.70;71.70
18105;DHT22;9179;50.968;3.134;2023-05-19T09:31:47;25.80;71.40
18105;DHT22;9179;50.968;3.134;2023-05-19T09:34:14;25.40;71.20
18105;DHT22;9179;50.968;3.134;2023-05-19T09:39:48;25.20;71.80
18105;DHT22;9179;50.968;3.134;2023-05-19T09:42:23;25.00;72.70
18105;DHT22;9179;50.968;3.134;2023-05-19T09:45:02;25.30;73.00
18105;DHT22;9179;50.968;3.134;2023-05-19T09:47:34;25.50;72.70
18105;DHT22;9179;50.968;3.134;2023-05-19T09:50:04;25.30;72.60
18105;DHT22;9179;50.968;3.134;2023-05-19T09:52:38;25.10;72.10
18105;DHT22;9179;50.968;3.134;2023-05-19T09:55:19;25.00;72.20
18105;DHT22;9179;50.968;3.134;2023-05-19T10:01:16;25.10;72.60
18105;DHT22;9179;50.968;3.134;2023-05-19T10:03:43;25.50;71.70
18105;DHT22;9179;50.968;3.134;2023-05-19T10:06:11;25.10;70.60
18105;DHT22;9179;50.968;3.134;2023-05-19T10:08:40;25.00;71.30
18105;DHT22;9179;50.968;3.134;2023-05-19T10:11:10;25.40;71.80
18105;DHT22;9179;50.968;3.134;2023-05-19T10:13:38;25.80;72.20
18105;DHT22;9179;50.968;3.134;2023-05-19T10:16:06;26.00;70.90
18105;DHT22;9179;50.968;3.134;2023-05-19T10:18:34;25.70;71.20
18105;DHT22;9179;50.968;3.134;2023-05-19T10:21:02;25.90;71.00
18105;DHT22;9179;50.968;3.134;2023-05-19T10:23:29;26.10;71.50
18105;DHT22;9179;50.968;3.134;2023-05-19T10:25:57;26.10;71.20
18105;DHT22;9179;50.968;3.134;2023-05-19T10:28:33;26.20;70.90
18105;DHT22;9179;50.968;3.134;2023-05-19T10:31:04;25.90;69.70
18105;DHT22;9179;50.968;3.134;2023-05-19T10:33:40;25.70;70.90
18105;DHT22;9179;50.968;3.134;2023-05-19T10:36:26;25.70;70.60
18105;DHT22;9179;50.968;3.134;2023-05-19T10:39:02;25.50;71.00
18105;DHT22;9179;50.968;3.134;2023-05-19T10:41:40;25.50;71.30
18105;DHT22;9179;50.968;3.134;2023-05-19T10:44:18;26.00;72.20
18105;DHT22;9179;50.968;3.134;2023-05-19T10:46:47;26.90;69.80
18105;DHT22;9179;50.968;3.134;2023-05-19T10:49:20;26.80;69.20
18105;DHT22;9179;50.968;3.134;2023-05-19T10:51:47;26.90;68.40
18105;DHT22;9179;50.968;3.134;2023-05-19T10:54:14;27.10;68.60
18105;DHT22;9179;50.968;3.134;2023-05-19T10:56:43;27.10;67.30
18105;DHT22;9179;50.968;3.134;2023-05-19T10:59:31;26.50;69.70
18105;DHT22;9179;50.968;3.134;2023-05-19T11:02:02;26.40;70.80
18105;DHT22;9179;50.968;3.134;2023-05-19T11:04:38;25.80;70.10
18105;DHT22;9179;50.968;3.134;2023-05-19T11:07:08;25.50;70.40
18105;DHT22;9179;50.968;3.134;2023-05-19T11:09:39;25.80;71.80
18105;DHT22;9179;50.968;3.134;2023-05-19T11:12:07;25.50;70.40
18105;DHT22;9179;50.968;3.134;2023-05-19T11:14:37;25.10;72.80
18105;DHT22;9179;50.968;3.134;2023-05-19T11:17:13;26.30;73.60
18105;DHT22;9179;50.968;3.134;2023-05-19T11:19:51;26.90;70.40
18105;DHT22;9179;50.968;3.134;2023-05-19T11:22:22;25.50;71.00
18105;DHT22;9179;50.968;3.134;2023-05-19T11:24:49;25.00;71.50
18105;DHT22;9179;50.968;3.134;2023-05-19T11:27:24;24.10;72.40
18105;DHT22;9179;50.968;3.134;2023-05-19T11:29:54;24.70;74.40
18105;DHT22;9179;50.968;3.134;2023-05-19T11:32:24;26.20;72.80
18105;DHT22;9179;50.968;3.134;2023-05-19T11:34:51;25.30;71.20
18105;DHT22;9179;50.968;3.134;2023-05-19T11:37:19;24.70;73.20
18105;DHT22;9179;50.968;3.134;2023-05-19T11:39:46;25.40;72.10
18105;DHT22;9179;50.968;3.134;2023-05-19T11:42:13;24.40;71.60
18105;DHT22;9179;50.968;3.134;2023-05-19T11:44:41;24.30;74.20
18105;DHT22;9179;50.968;3.134;2023-05-19T11:47:12;25.40;71.80
18105;DHT22;9179;50.968;3.134;2023-05-19T11:49:43;27.10;70.10
18105;DHT22;9179;50.968;3.134;2023-05-19T11:52:10;27.90;66.80
18105;DHT22;9179;50.968;3.134;2023-05-19T11:54:37;26.60;65.30
18105;DHT22;9179;50.968;3.134;2023-05-19T11:57:07;25.30;66.80
18105;DHT22;9179;50.968;3.134;2023-05-19T11:59:36;24.70;68.00
18105;DHT22;9179;50.968;3.134;2023-05-19T12:02:15;25.20;69.20
18105;DHT22;9179;50.968;3.134;2023-05-19T12:04:42;26.30;68.30
18105;DHT22;9179;50.968;3.134;2023-05-19T12:07:10;27.10;66.80
18105;DHT22;9179;50.968;3.134;2023-05-19T12:09:38;26.40;65.10
18105;DHT22;9179;50.968;3.134;2023-05-19T12:12:05;25.70;66.70
18105;DHT22;9179;50.968;3.134;2023-05-19T12:14:33;26.30;66.30
18105;DHT22;9179;50.968;3.134;2023-05-19T12:17:09;26.80;65.30
18105;DHT22;9179;50.968;3.134;2023-05-19T12:19:37;26.80;63.80
18105;DHT22;9179;50.968;3.134;2023-05-19T12:22:06;26.70;63.10
18105;DHT22;9179;50.968;3.134;2023-05-19T12:24:33;27.20;63.50
18105;DHT22;9179;50.968;3.134;2023-05-19T12:27:09;28.50;62.70
18105;DHT22;9179;50.968;3.134;2023-05-19T12:29:38;28.60;59.70
18105;DHT22;9179;50.968;3.134;2023-05-19T12:32:06;28.40;60.70
18105;DHT22;9179;50.968;3.134;2023-05-19T12:34:36;28.90;59.90
18105;DHT22;9179;50.968;3.134;2023-05-19T12:37:04;28.90;58.90
18105;DHT22;9179;50.968;3.134;2023-05-19T12:39:31;29.00;59.20
18105;DHT22;9179;50.968;3.134;2023-05-19T12:42:01;28.50;59.40
18105;DHT22;9179;50.968;3.134;2023-05-19T12:44:28;27.80;59.90
18105;DHT22;9179;50.968;3.134;2023-05-19T12:46:56;27.70;60.60
18105;DHT22;9179;50.968;3.134;2023-05-19T12:49:23;27.90;60.80
18105;DHT22;9179;50.968;3.134;2023-05-19T12:51:52;28.60;61.00
18105;DHT22;9179;50.968;3.134;2023-05-19T12:54:20;28.80;59.30
18105;DHT22;9179;50.968;3.134;2023-05-19T12:56:50;28.50;58.90
18105;DHT22;9179;50.968;3.134;2023-05-19T12:59:21;28.90;59.00
18105;DHT22;9179;50.968;3.134;2023-05-19T13:01:54;29.40;58.10
18105;DHT22;9179;50.968;3.134;2023-05-19T13:04:21;29.10;57.90
18105;DHT22;9179;50.968;3.134;2023-05-19T13:06:48;29.10;57.40
18105;DHT22;9179;50.968;3.134;2023-05-19T13:09:17;27.30;58.60
18105;DHT22;9179;50.968;3.134;2023-05-19T13:11:45;27.30;59.50
18105;DHT22;9179;50.968;3.134;2023-05-19T13:14:15;26.70;59.30
18105;DHT22;9179;50.968;3.134;2023-05-19T13:16:43;26.10;61.50
18105;DHT22;9179;50.968;3.134;2023-05-19T13:19:11;27.80;60.00
18105;DHT22;9179;50.968;3.134;2023-05-19T13:21:38;29.70;57.80
18105;DHT22;9179;50.968;3.134;2023-05-19T13:24:05;29.50;56.60
18105;DHT22;9179;50.968;3.134;2023-05-19T13:26:34;29.90;56.30
18105;DHT22;9179;50.968;3.134;2023-05-19T13:29:01;30.70;55.30
18105;DHT22;9179;50.968;3.134;2023-05-19T13:31:28;30.30;54.60
18105;DHT22;9179;50.968;3.134;2023-05-19T13:33:56;29.10;55.90
18105;DHT22;9179;50.968;3.134;2023-05-19T13:36:23;29.40;55.10
18105;DHT22;9179;50.968;3.134;2023-05-19T13:38:50;30.20;55.10
18105;DHT22;9179;50.968;3.134;2023-05-19T13:41:22;30.80;54.60
18105;DHT22;9179;50.968;3.134;2023-05-19T13:43:52;31.20;53.80
18105;DHT22;9179;50.968;3.134;2023-05-19T13:46:19;32.00;53.20
18105;DHT22;9179;50.968;3.134;2023-05-19T13:48:46;32.70;51.90
18105;DHT22;9179;50.968;3.134;2023-05-19T13:51:13;31.70;52.00
18105;DHT22;9179;50.968;3.134;2023-05-19T13:53:40;28.40;55.60
18105;DHT22;9179;50.968;3.134;2023-05-19T13:56:07;28.20;57.20
18105;DHT22;9179;50.968;3.134;2023-05-19T13:58:34;28.70;57.10
18105;DHT22;9179;50.968;3.134;2023-05-19T14:01:02;26.70;59.20
18105;DHT22;9179;50.968;3.134;2023-05-19T14:03:29;28.50;58.90
18105;DHT22;9179;50.968;3.134;2023-05-19T14:05:56;30.20;56.80
18105;DHT22;9179;50.968;3.134;2023-05-19T14:08:23;31.20;54.90
18105;DHT22;9179;50.968;3.134;2023-05-19T14:10:50;32.10;54.10
18105;DHT22;9179;50.968;3.134;2023-05-19T14:13:18;29.70;55.90
18105;DHT22;9179;50.968;3.134;2023-05-19T14:15:45;26.80;59.60
18105;DHT22;9179;50.968;3.134;2023-05-19T14:18:14;25.10;63.70
18105;DHT22;9179;50.968;3.134;2023-05-19T14:20:41;27.50;62.50
18105;DHT22;9179;50.968;3.134;2023-05-19T14:23:08;27.80;60.80
18105;DHT22;9179;50.968;3.134;2023-05-19T14:25:35;25.70;65.20
18105;DHT22;9179;50.968;3.134;2023-05-19T14:28:02;26.00;64.60
18105;DHT22;9179;50.968;3.134;2023-05-19T14:30:29;24.70;66.90
18105;DHT22;9179;50.968;3.134;2023-05-19T14:32:56;25.00;67.80
18105;DHT22;9179;50.968;3.134;2023-05-19T14:35:25;27.40;63.60
18105;DHT22;9179;50.968;3.134;2023-05-19T14:37:51;29.40;60.30
18105;DHT22;9179;50.968;3.134;2023-05-19T14:40:19;30.00;58.50
18105;DHT22;9179;50.968;3.134;2023-05-19T14:42:46;30.90;57.60
18105;DHT22;9179;50.968;3.134;2023-05-19T14:45:13;31.10;56.80
18105;DHT22;9179;50.968;3.134;2023-05-19T14:47:40;31.00;56.30
18105;DHT22;9179;50.968;3.134;2023-05-19T14:50:07;31.10;56.50
18105;DHT22;9179;50.968;3.134;2023-05-19T14:52:36;31.60;56.00
18105;DHT22;9179;50.968;3.134;2023-05-19T14:55:03;32.00;55.00
18105;DHT22;9179;50.968;3.134;2023-05-19T14:57:30;31.50;55.20
18105;DHT22;9179;50.968;3.134;2023-05-19T14:59:57;31.60;55.00
18105;DHT22;9179;50.968;3.134;2023-05-19T15:02:24;31.50;54.60
18105;DHT22;9179;50.968;3.134;2023-05-19T15:04:51;31.80;54.20
18105;DHT22;9179;50.968;3.134;2023-05-19T15:07:18;32.10;54.20
18105;DHT22;9179;50.968;3.134;2023-05-19T15:09:47;31.80;53.30
18105;DHT22;9179;50.968;3.134;2023-05-19T15:12:14;31.10;54.20
18105;DHT22;9179;50.968;3.134;2023-05-19T15:14:41;31.00;54.20
18105;DHT22;9179;50.968;3.134;2023-05-19T15:17:08;30.90;54.20
18105;DHT22;9179;50.968;3.134;2023-05-19T15:19:35;31.20;54.70
18105;DHT22;9179;50.968;3.134;2023-05-19T15:22:02;31.30;54.10
18105;DHT22;9179;50.968;3.134;2023-05-19T15:24:29;31.60;53.80
18105;DHT22;9179;50.968;3.134;2023-05-19T15:26:57;31.50;53.80
18105;DHT22;9179;50.968;3.134;2023-05-19T15:29:25;32.20;53.30
18105;DHT22;9179;50.968;3.134;2023-05-19T15:31:52;32.20;52.60
18105;DHT22;9179;50.968;3.134;2023-05-19T15:34:20;31.20;53.30
18105;DHT22;9179;50.968;3.134;2023-05-19T15:36:47;30.80;54.10
18105;DHT22;9179;50.968;3.134;2023-05-19T15:39:14;30.70;53.90
18105;DHT22;9179;50.968;3.134;2023-05-19T15:41:41;30.30;54.20
18105;DHT22;9179;50.968;3.134;2023-05-19T15:44:09;30.50;54.10
18105;DHT22;9179;50.968;3.134;2023-05-19T15:46:36;30.80;53.60
18105;DHT22;9179;50.968;3.134;2023-05-19T15:49:03;30.60;53.00
18105;DHT22;9179;50.968;3.134;2023-05-19T15:51:30;30.00;53.60
18105;DHT22;9179;50.968;3.134;2023-05-19T15:53:57;30.30;53.50
18105;DHT22;9179;50.968;3.134;2023-05-19T15:56:24;30.60;53.60
18105;DHT22;9179;50.968;3.134;2023-05-19T15:58:51;31.90;52.20
18105;DHT22;9179;50.968;3.134;2023-05-19T16:01:20;31.20;52.40
18105;DHT22;9179;50.968;3.134;2023-05-19T16:03:47;31.00;52.90
18105;DHT22;9179;50.968;3.134;2023-05-19T16:06:14;30.50;52.70
18105;DHT22;9179;50.968;3.134;2023-05-19T16:08:42;29.80;53.30
18105;DHT22;9179;50.968;3.134;2023-05-19T16:11:09;29.60;53.60
18105;DHT22;9179;50.968;3.134;2023-05-19T16:13:36;30.00;53.90
18105;DHT22;9179;50.968;3.134;2023-05-19T16:16:03;29.90;53.30
18105;DHT22;9179;50.968;3.134;2023-05-19T16:18:32;30.10;53.40
18105;DHT22;9179;50.968;3.134;2023-05-19T16:20:59;30.30;53.00
18105;DHT22;9179;50.968;3.134;2023-05-19T16:23:26;29.80;53.30
18105;DHT22;9179;50.968;3.134;2023-05-19T16:25:53;29.80;53.40
18105;DHT22;9179;50.968;3.134;2023-05-19T16:28:22;30.10;53.00